Time;durP1;ratioP1;P1;durP2;ratioP2;P2;SDS_P1;SDS_P2;PMS_P1;PMS_P2;Temp;Humidity;BMP_temperature;BMP_pressure;BME280_temperature;BME280_humidity;BME280_pressure;Samples;Min_cycle;Max_cycle;Signal;HPM_P1;HPM_P2
2022/06/10 00:02:04;;;;;;;9.35;1.98;;;;;;;;;;4994113;28;20220;-65
2022/06/10 00:04:32;;;;;;;7.75;2.00;;;;;;;;;;5002436;28;20247;-66
2022/06/10 00:06:57;;;;;;;6.22;2.03;;;;;;;;;;5005803;28;20282;-66
2022/06/10 00:09:22;;;;;;;6.30;1.92;;;;;;;;;;5011823;28;20663;-66
2022/06/10 00:11:48;;;;;;;8.75;2.05;;;;;;;;;;4994929;28;20221;-66
2022/06/10 00:14:13;;;;;;;5.03;2.00;;;;;;;;;;5010458;28;20208;-66
2022/06/10 00:16:38;;;;;;;9.57;2.08;;;;;;;;;;5014066;28;20216;-66
2022/06/10 00:19:04;;;;;;;8.02;2.03;;;;;;;;;;5012547;28;20223;-66
2022/06/10 00:21:29;;;;;;;5.72;1.63;;;;;;;;;;5001894;28;20205;-66
2022/06/10 00:23:54;;;;;;;7.47;2.25;;;;;;;;;;4993926;28;20240;-66
2022/06/10 00:26:20;;;;;;;6.88;2.13;;;;;;;;;;4992955;28;20251;-66
2022/06/10 00:28:45;;;;;;;7.55;2.38;;;;;;;;;;4993742;28;20232;-66
2022/06/10 00:31:11;;;;;;;9.35;2.30;;;;;;;;;;4994871;28;20672;-66
2022/06/10 00:33:37;;;;;;;8.15;2.25;;;;;;;;;;5012963;28;20216;-66
2022/06/10 00:36:02;;;;;;;8.55;2.78;;;;;;;;;;5013161;28;20575;-66
2022/06/10 00:38:27;;;;;;;10.27;2.50;;;;;;;;;;5012089;28;20697;-66
2022/06/10 00:40:54;;;;;;;9.30;2.40;;;;;;;;;;5012123;28;20701;-66
2022/06/10 00:43:20;;;;;;;7.18;2.13;;;;;;;;;;5009589;28;20215;-67
2022/06/10 00:45:47;;;;;;;8.82;2.53;;;;;;;;;;4993611;28;20714;-66
2022/06/10 00:48:13;;;;;;;8.02;2.50;;;;;;;;;;4992597;28;20240;-66
2022/06/10 00:50:38;;;;;;;12.25;2.55;;;;;;;;;;4993815;28;20209;-66
2022/06/10 00:53:04;;;;;;;7.63;2.50;;;;;;;;;;4993454;28;20217;-66
2022/06/10 00:55:29;;;;;;;10.13;2.55;;;;;;;;;;4992785;28;20211;-66
2022/06/10 00:57:58;;;;;;;11.63;3.28;;;;;;;;;;4993204;28;20217;-64
2022/06/10 01:00:23;;;;;;;11.05;2.72;;;;;;;;;;4991759;28;20656;-64
2022/06/10 01:02:48;;;;;;;9.55;2.65;;;;;;;;;;4991463;28;20234;-64
2022/06/10 01:05:15;;;;;;;8.93;2.35;;;;;;;;;;4987458;28;20227;-64
2022/06/10 01:07:42;;;;;;;11.13;2.60;;;;;;;;;;4999518;28;20222;-64
2022/06/10 01:10:08;;;;;;;8.32;2.38;;;;;;;;;;4997826;28;20220;-64
2022/06/10 01:12:41;;;;;;;9.80;2.78;;;;;;;;;;4991623;28;20266;-64
2022/06/10 01:15:25;;;;;;;11.95;2.35;;;;;;;;;;5017144;28;20259;-64
2022/06/10 01:17:50;;;;;;;6.60;2.30;;;;;;;;;;5014218;28;20733;-66
2022/06/10 01:20:28;;;;;;;13.32;2.60;;;;;;;;;;4979515;28;20221;-66
2022/06/10 01:22:57;;;;;;;9.63;2.60;;;;;;;;;;5009256;28;20220;-66
2022/06/10 01:25:32;;;;;;;6.75;2.42;;;;;;;;;;4998772;28;20720;-66
2022/06/10 01:28:05;;;;;;;6.85;2.30;;;;;;;;;;5017971;28;20274;-67
2022/06/10 01:30:34;;;;;;;9.23;2.45;;;;;;;;;;5016571;28;20220;-67
2022/06/10 01:33:01;;;;;;;8.38;2.60;;;;;;;;;;4983330;28;20217;-67
2022/06/10 01:35:27;;;;;;;8.57;2.58;;;;;;;;;;4982627;28;20216;-66
2022/06/10 01:37:56;;;;;;;8.52;3.08;;;;;;;;;;4988523;28;20290;-66
2022/06/10 01:40:23;;;;;;;17.35;4.63;;;;;;;;;;4998239;28;20263;-67
2022/06/10 01:42:51;;;;;;;11.73;3.25;;;;;;;;;;5009769;28;20228;-67
2022/06/10 01:45:27;;;;;;;10.27;3.38;;;;;;;;;;5008717;28;20275;-66
2022/06/10 01:47:56;;;;;;;12.60;3.70;;;;;;;;;;4998252;28;20722;-64
2022/06/10 01:50:25;;;;;;;10.75;3.20;;;;;;;;;;5000903;28;20219;-65
2022/06/10 01:52:52;;;;;;;7.03;2.65;;;;;;;;;;5001789;28;20220;-66
2022/06/10 01:55:19;;;;;;;10.32;3.03;;;;;;;;;;5016973;28;20299;-66
2022/06/10 01:57:44;;;;;;;9.93;2.75;;;;;;;;;;5016563;28;20251;-66
2022/06/10 02:00:12;;;;;;;8.40;2.40;;;;;;;;;;5001392;28;20645;-65
2022/06/10 02:02:39;;;;;;;11.32;3.13;;;;;;;;;;5014624;28;20208;-66
2022/06/10 02:05:07;;;;;;;8.00;2.88;;;;;;;;;;5008343;28;20781;-65
2022/06/10 02:07:33;;;;;;;11.77;2.83;;;;;;;;;;5008636;28;20208;-66
2022/06/10 02:10:02;;;;;;;8.48;2.70;;;;;;;;;;4996244;28;20679;-66
2022/06/10 02:12:34;;;;;;;6.65;2.45;;;;;;;;;;5006137;28;20221;-66
2022/06/10 02:15:01;;;;;;;7.35;2.72;;;;;;;;;;5016456;28;20323;-66
2022/06/10 02:17:28;;;;;;;6.90;2.60;;;;;;;;;;5001613;28;20230;-66
2022/06/10 02:19:54;;;;;;;10.05;2.80;;;;;;;;;;4989297;28;20271;-66
2022/06/10 02:22:31;;;;;;;9.90;2.78;;;;;;;;;;4997150;28;20221;-66
2022/06/10 02:24:58;;;;;;;11.23;3.03;;;;;;;;;;5014921;28;20330;-66
2022/06/10 02:27:26;;;;;;;9.38;3.00;;;;;;;;;;4993662;28;20283;-66
2022/06/10 02:29:57;;;;;;;11.73;3.10;;;;;;;;;;4993451;28;20263;-66
2022/06/10 02:32:22;;;;;;;9.50;3.35;;;;;;;;;;4995747;28;20304;-66
2022/06/10 02:34:48;;;;;;;12.00;3.00;;;;;;;;;;4982198;28;21070;-66
2022/06/10 02:37:22;;;;;;;7.97;2.90;;;;;;;;;;4982423;28;20691;-66
2022/06/10 02:39:52;;;;;;;9.00;2.97;;;;;;;;;;5016111;28;20220;-66
2022/06/10 02:42:19;;;;;;;10.40;2.92;;;;;;;;;;5001235;28;20208;-66
2022/06/10 02:44:49;;;;;;;13.45;3.22;;;;;;;;;;5001032;28;20229;-66
2022/06/10 02:47:14;;;;;;;7.72;2.80;;;;;;;;;;5000323;28;20217;-65
2022/06/10 02:49:40;;;;;;;13.35;3.63;;;;;;;;;;4993696;28;20306;-66
2022/06/10 02:52:05;;;;;;;8.93;3.17;;;;;;;;;;5008503;28;20222;-66
2022/06/10 02:54:31;;;;;;;9.52;3.22;;;;;;;;;;4988755;28;20529;-66
2022/06/10 02:56:57;;;;;;;8.02;3.08;;;;;;;;;;4981940;28;20618;-66
2022/06/10 03:02:07;;;;;;;8.35;3.33;;;;;;;;;;5000290;28;20654;-66
2022/06/10 03:04:42;;;;;;;7.22;2.97;;;;;;;;;;5001787;28;20227;-66
2022/06/10 03:07:08;;;;;;;10.35;3.38;;;;;;;;;;5004485;28;20220;-66
2022/06/10 03:09:36;;;;;;;8.98;3.20;;;;;;;;;;5004728;28;20232;-66
2022/06/10 03:12:06;;;;;;;10.73;3.47;;;;;;;;;;5006788;28;20259;-65
2022/06/10 03:14:41;;;;;;;9.00;2.80;;;;;;;;;;5011221;28;20212;-66
2022/06/10 03:17:07;;;;;;;8.18;2.90;;;;;;;;;;5012185;28;20270;-66
2022/06/10 03:19:36;;;;;;;7.25;2.75;;;;;;;;;;4994339;28;20213;-66
2022/06/10 03:22:02;;;;;;;11.73;3.05;;;;;;;;;;5018503;28;20266;-65
2022/06/10 03:24:39;;;;;;;9.80;2.88;;;;;;;;;;5005155;28;20213;-66
2022/06/10 03:27:10;;;;;;;11.05;2.90;;;;;;;;;;5005107;28;20250;-66
2022/06/10 03:29:39;;;;;;;9.75;2.95;;;;;;;;;;5019550;28;20701;-66
2022/06/10 03:32:08;;;;;;;9.85;2.90;;;;;;;;;;5007631;28;20245;-65
2022/06/10 03:34:37;;;;;;;11.20;3.25;;;;;;;;;;5008440;28;20212;-67
2022/06/10 03:37:02;;;;;;;8.30;3.08;;;;;;;;;;4979622;28;20280;-66
2022/06/10 03:39:28;;;;;;;8.48;2.70;;;;;;;;;;4977981;28;20946;-65
2022/06/10 03:41:56;;;;;;;10.73;2.72;;;;;;;;;;5018473;28;20266;-66
2022/06/10 03:44:22;;;;;;;16.05;3.40;;;;;;;;;;4988395;28;20221;-67
2022/06/10 03:46:48;;;;;;;20.65;3.58;;;;;;;;;;5019744;28;20220;-66
2022/06/10 03:49:13;;;;;;;6.97;2.65;;;;;;;;;;5019103;28;20255;-69
2022/06/10 03:51:39;;;;;;;8.07;2.80;;;;;;;;;;5003213;28;20811;-69
2022/06/10 03:54:04;;;;;;;11.70;3.58;;;;;;;;;;5003289;28;20522;-68
2022/06/10 03:56:31;;;;;;;9.63;3.13;;;;;;;;;;4999819;28;20314;-69
2022/06/10 03:58:56;;;;;;;8.27;3.25;;;;;;;;;;4983177;28;20225;-68
2022/06/10 04:01:21;;;;;;;11.40;2.80;;;;;;;;;;4976858;28;20275;-66
2022/06/10 04:03:47;;;;;;;12.32;3.22;;;;;;;;;;4980862;28;20209;-67
2022/06/10 04:06:12;;;;;;;7.55;2.70;;;;;;;;;;4984353;28;20209;-66
2022/06/10 04:08:38;;;;;;;9.77;2.70;;;;;;;;;;4999835;28;20324;-66
2022/06/10 04:11:03;;;;;;;11.40;2.97;;;;;;;;;;4984243;28;20215;-66
2022/06/10 04:13:28;;;;;;;9.52;3.03;;;;;;;;;;4984970;28;20308;-67
2022/06/10 04:15:54;;;;;;;19.48;3.20;;;;;;;;;;4984259;28;20233;-65
2022/06/10 04:18:19;;;;;;;10.60;3.25;;;;;;;;;;4981660;28;20616;-66
2022/06/10 04:20:44;;;;;;;10.40;3.33;;;;;;;;;;4977169;28;20213;-65
2022/06/10 04:23:10;;;;;;;13.02;3.60;;;;;;;;;;4976456;28;20762;-66
2022/06/10 04:25:36;;;;;;;13.45;4.20;;;;;;;;;;4978222;28;20255;-62
2022/06/10 04:28:02;;;;;;;13.00;4.35;;;;;;;;;;4985036;28;20311;-64
2022/06/10 04:30:29;;;;;;;15.52;3.78;;;;;;;;;;4984673;28;20543;-63
2022/06/10 04:32:55;;;;;;;14.30;3.63;;;;;;;;;;4984205;28;20209;-65
2022/06/10 04:35:20;;;;;;;16.60;3.45;;;;;;;;;;4983054;28;20220;-63
2022/06/10 04:37:45;;;;;;;12.38;4.00;;;;;;;;;;4984466;28;20272;-65
2022/06/10 04:40:12;;;;;;;19.50;4.05;;;;;;;;;;4983528;28;20212;-65
2022/06/10 04:42:38;;;;;;;12.13;3.83;;;;;;;;;;4996623;28;20327;-65
2022/06/10 04:45:03;;;;;;;28.88;5.00;;;;;;;;;;4977586;28;20343;-64
2022/06/10 04:47:28;;;;;;;23.95;3.63;;;;;;;;;;4994426;28;20197;-65
2022/06/10 04:49:59;;;;;;;48.67;4.88;;;;;;;;;;5002161;28;20309;-65
2022/06/10 04:52:25;;;;;;;28.65;4.18;;;;;;;;;;5002850;28;20207;-65
2022/06/10 04:54:50;;;;;;;57.72;5.70;;;;;;;;;;5002726;28;20220;-65
2022/06/10 04:57:15;;;;;;;11.73;3.10;;;;;;;;;;5003109;28;20223;-65
2022/06/10 04:59:41;;;;;;;23.38;3.60;;;;;;;;;;5002838;28;20722;-64
2022/06/10 05:02:06;;;;;;;25.65;3.90;;;;;;;;;;5002279;28;20213;-64
2022/06/10 05:04:31;;;;;;;23.25;4.15;;;;;;;;;;4997796;28;20235;-63
2022/06/10 05:06:56;;;;;;;24.40;4.25;;;;;;;;;;4987665;28;20830;-64
2022/06/10 05:09:22;;;;;;;19.20;4.25;;;;;;;;;;4975405;28;20225;-63
2022/06/10 05:11:47;;;;;;;16.38;3.53;;;;;;;;;;4981457;28;20445;-63
2022/06/10 05:14:12;;;;;;;15.73;4.00;;;;;;;;;;4983262;28;20248;-63
2022/06/10 05:16:37;;;;;;;12.48;3.38;;;;;;;;;;4984960;28;20233;-64
2022/06/10 05:19:03;;;;;;;17.83;4.13;;;;;;;;;;4983666;28;20678;-64
2022/06/10 05:21:28;;;;;;;15.07;3.78;;;;;;;;;;4982801;28;20239;-64
2022/06/10 05:23:53;;;;;;;20.83;3.88;;;;;;;;;;5002742;28;20208;-64
2022/06/10 05:26:19;;;;;;;14.25;3.65;;;;;;;;;;5000028;28;20982;-64
2022/06/10 05:28:46;;;;;;;73.15;7.03;;;;;;;;;;4994406;28;20286;-64
2022/06/10 05:31:11;;;;;;;30.23;4.47;;;;;;;;;;4989789;28;20201;-63
2022/06/10 05:36:20;;;;;;;24.05;4.75;;;;;;;;;;5001516;28;20247;-63
2022/06/10 05:38:46;;;;;;;20.70;3.95;;;;;;;;;;5002771;28;20269;-64
2022/06/10 05:43:55;;;;;;;26.13;4.28;;;;;;;;;;4992759;28;20271;-64
2022/06/10 05:46:20;;;;;;;28.17;4.07;;;;;;;;;;4982288;28;20245;-64
2022/06/10 05:48:46;;;;;;;28.88;3.63;;;;;;;;;;4980909;28;20244;-64
2022/06/10 05:51:11;;;;;;;13.45;4.47;;;;;;;;;;4974621;28;20351;-64
2022/06/10 05:53:36;;;;;;;12.38;3.88;;;;;;;;;;4994331;28;20204;-64
2022/06/10 05:56:02;;;;;;;23.73;4.82;;;;;;;;;;4995123;28;20220;-64
2022/06/10 05:58:27;;;;;;;45.53;6.90;;;;;;;;;;5001178;28;20347;-65
2022/06/10 06:00:52;;;;;;;57.17;6.53;;;;;;;;;;5001879;28;20238;-65
2022/06/10 06:03:17;;;;;;;36.53;5.68;;;;;;;;;;5000964;28;20212;-65
2022/06/10 06:05:43;;;;;;;23.45;5.22;;;;;;;;;;5000982;28;20347;-65
2022/06/10 06:08:08;;;;;;;24.35;5.15;;;;;;;;;;5001557;28;20262;-64
2022/06/10 06:10:34;;;;;;;23.77;4.40;;;;;;;;;;5001605;28;20216;-65
2022/06/10 06:12:59;;;;;;;18.50;4.38;;;;;;;;;;4981800;28;20264;-65
2022/06/10 06:15:25;;;;;;;13.25;3.85;;;;;;;;;;4975224;28;20275;-66
2022/06/10 06:17:50;;;;;;;13.70;3.95;;;;;;;;;;4974214;28;20221;-64
2022/06/10 06:20:16;;;;;;;27.83;4.22;;;;;;;;;;4980869;28;20747;-64
2022/06/10 06:22:41;;;;;;;14.77;3.58;;;;;;;;;;4982421;28;20221;-65
2022/06/10 06:25:06;;;;;;;15.40;4.00;;;;;;;;;;4981679;28;20213;-64
2022/06/10 06:27:32;;;;;;;91.43;7.07;;;;;;;;;;5001306;28;20741;-64
2022/06/10 06:29:59;;;;;;;10.95;3.40;;;;;;;;;;5001901;28;20770;-65
2022/06/10 06:32:24;;;;;;;16.77;3.63;;;;;;;;;;4986511;28;20217;-64
2022/06/10 06:34:49;;;;;;;52.05;5.18;;;;;;;;;;4978260;28;20224;-65
2022/06/10 06:37:15;;;;;;;15.40;3.70;;;;;;;;;;4974736;28;20408;-65
2022/06/10 06:39:40;;;;;;;24.13;3.95;;;;;;;;;;4974679;28;20220;-65
2022/06/10 06:42:05;;;;;;;13.80;3.72;;;;;;;;;;4982355;28;20221;-65
2022/06/10 06:44:31;;;;;;;16.27;3.93;;;;;;;;;;4985405;28;20417;-67
2022/06/10 06:46:56;;;;;;;23.27;4.72;;;;;;;;;;5004816;28;20262;-66
2022/06/10 06:49:25;;;;;;;79.43;7.50;;;;;;;;;;5004912;28;20760;-67
2022/06/10 06:51:50;;;;;;;22.90;4.45;;;;;;;;;;4999548;28;20228;-66
2022/06/10 06:54:16;;;;;;;48.75;5.60;;;;;;;;;;4985172;28;20221;-66
2022/06/10 06:56:42;;;;;;;28.27;4.68;;;;;;;;;;4984502;28;20227;-64
2022/06/10 06:59:07;;;;;;;30.95;4.70;;;;;;;;;;4978383;28;20240;-64
2022/06/10 07:01:32;;;;;;;16.33;4.03;;;;;;;;;;4985957;28;20563;-64
2022/06/10 07:03:58;;;;;;;25.90;4.38;;;;;;;;;;5010841;28;20220;-66
2022/06/10 07:06:23;;;;;;;41.90;5.93;;;;;;;;;;5014643;28;20212;-65
2022/06/10 07:08:50;;;;;;;23.88;4.13;;;;;;;;;;5014702;28;20227;-66
2022/06/10 07:11:16;;;;;;;14.05;3.92;;;;;;;;;;5014218;28;20212;-66
2022/06/10 07:13:41;;;;;;;9.90;3.03;;;;;;;;;;4994219;28;20213;-66
2022/06/10 07:16:06;;;;;;;13.32;3.28;;;;;;;;;;4994728;28;20247;-65
2022/06/10 07:18:32;;;;;;;29.02;4.00;;;;;;;;;;4996066;28;20216;-66
2022/06/10 07:20:58;;;;;;;10.07;3.30;;;;;;;;;;5014328;28;20212;-65
2022/06/10 07:23:23;;;;;;;36.28;5.32;;;;;;;;;;5014409;28;20659;-66
2022/06/10 07:25:48;;;;;;;17.27;3.60;;;;;;;;;;5014582;28;20223;-66
2022/06/10 07:28:14;;;;;;;24.83;3.97;;;;;;;;;;5013425;28;20314;-65
2022/06/10 07:30:39;;;;;;;25.95;3.80;;;;;;;;;;5014360;28;20278;-66
2022/06/10 07:33:05;;;;;;;26.00;3.95;;;;;;;;;;5013943;28;20224;-65
2022/06/10 07:35:30;;;;;;;22.77;3.85;;;;;;;;;;5010454;28;20216;-66
2022/06/10 07:37:57;;;;;;;16.25;3.85;;;;;;;;;;5006814;28;20295;-65
2022/06/10 07:43:08;;;;;;;25.83;3.72;;;;;;;;;;5013101;28;20306;-63
2022/06/10 07:45:34;;;;;;;21.52;3.35;;;;;;;;;;5014600;28;20698;-67
2022/06/10 07:47:59;;;;;;;33.47;4.25;;;;;;;;;;5014073;28;20696;-68
2022/06/10 07:50:24;;;;;;;28.52;3.75;;;;;;;;;;5013320;28;20212;-68
2022/06/10 07:52:50;;;;;;;11.63;3.67;;;;;;;;;;5014389;28;20215;-65
2022/06/10 07:55:15;;;;;;;12.65;3.38;;;;;;;;;;5013591;28;20212;-67
2022/06/10 07:57:41;;;;;;;16.90;3.13;;;;;;;;;;5013474;28;20571;-68
2022/06/10 08:00:06;;;;;;;27.60;3.90;;;;;;;;;;5010496;28;20311;-66
2022/06/10 08:02:33;;;;;;;22.00;3.72;;;;;;;;;;5008764;28;20308;-68
2022/06/10 08:04:58;;;;;;;42.67;4.35;;;;;;;;;;5018616;28;20287;-66
2022/06/10 08:07:23;;;;;;;30.02;3.95;;;;;;;;;;5013414;28;20625;-65
2022/06/10 08:09:49;;;;;;;19.35;2.83;;;;;;;;;;5016602;28;20229;-66
2022/06/10 08:12:14;;;;;;;24.48;2.90;;;;;;;;;;5014157;28;20272;-67
2022/06/10 08:14:39;;;;;;;14.07;2.53;;;;;;;;;;4998716;28;20205;-69
2022/06/10 08:17:07;;;;;;;11.52;2.17;;;;;;;;;;4993274;28;20312;-67
2022/06/10 08:19:32;;;;;;;12.48;2.30;;;;;;;;;;5013586;28;20204;-66
2022/06/10 08:24:42;;;;;;;9.15;2.60;;;;;;;;;;5012489;28;20274;-68
2022/06/10 08:27:07;;;;;;;9.25;2.28;;;;;;;;;;5012896;28;20208;-69
2022/06/10 08:29:32;;;;;;;12.00;2.35;;;;;;;;;;5013826;28;20315;-70
2022/06/10 08:31:58;;;;;;;11.40;2.17;;;;;;;;;;5013013;28;20209;-70
2022/06/10 08:34:24;;;;;;;51.58;4.47;;;;;;;;;;5013018;28;20304;-70
2022/06/10 08:36:49;;;;;;;23.42;2.92;;;;;;;;;;5013571;28;20240;-70
2022/06/10 08:39:14;;;;;;;9.00;2.08;;;;;;;;;;5011991;28;20299;-70
2022/06/10 08:41:41;;;;;;;10.55;2.38;;;;;;;;;;5013267;28;20220;-70
2022/06/10 08:44:09;;;;;;;8.20;2.00;;;;;;;;;;5012973;28;20223;-69
2022/06/10 08:46:44;;;;;;;14.82;2.10;;;;;;;;;;5011611;28;20212;-69
2022/06/10 08:49:10;;;;;;;14.02;2.50;;;;;;;;;;5012420;28;20254;-68
2022/06/10 08:51:39;;;;;;;12.90;1.90;;;;;;;;;;5013043;28;20730;-70
2022/06/10 08:54:14;;;;;;;22.00;2.65;;;;;;;;;;5010389;28;20254;-70
2022/06/10 08:56:40;;;;;;;32.55;3.38;;;;;;;;;;5011711;28;20219;-68
2022/06/10 08:59:18;;;;;;;19.35;2.90;;;;;;;;;;5010639;28;20319;-70
2022/06/10 09:01:50;;;;;;;16.70;2.95;;;;;;;;;;5013224;28;20275;-70
2022/06/10 09:04:15;;;;;;;14.57;2.42;;;;;;;;;;5009711;28;20212;-69
2022/06/10 09:06:42;;;;;;;32.42;3.78;;;;;;;;;;5011799;28;20281;-69
2022/06/10 09:09:09;;;;;;;10.40;2.30;;;;;;;;;;5010914;28;20225;-69
2022/06/10 09:11:37;;;;;;;11.05;1.77;;;;;;;;;;5011787;28;20255;-69
2022/06/10 09:14:15;;;;;;;19.05;3.13;;;;;;;;;;5011809;28;20585;-69
2022/06/10 09:16:47;;;;;;;7.47;1.90;;;;;;;;;;5012442;28;20557;-67
2022/06/10 09:19:19;;;;;;;15.23;2.63;;;;;;;;;;5011414;28;20209;-66
2022/06/10 09:21:48;;;;;;;9.38;1.90;;;;;;;;;;5010687;28;20232;-66
2022/06/10 09:24:17;;;;;;;13.48;2.38;;;;;;;;;;5012251;28;20217;-68
2022/06/10 09:26:45;;;;;;;11.20;2.22;;;;;;;;;;5011478;28;20213;-68
2022/06/10 09:29:11;;;;;;;11.52;2.25;;;;;;;;;;5009770;28;20228;-67
2022/06/10 09:31:40;;;;;;;25.27;2.97;;;;;;;;;;5012120;28;20307;-66
2022/06/10 09:34:06;;;;;;;11.25;2.22;;;;;;;;;;5011474;28;20212;-67
2022/06/10 09:36:33;;;;;;;12.40;1.95;;;;;;;;;;5012370;28;20498;-68
2022/06/10 09:39:01;;;;;;;63.97;4.55;;;;;;;;;;5012291;28;20224;-68
2022/06/10 09:41:26;;;;;;;17.05;2.10;;;;;;;;;;5011485;28;20570;-67
2022/06/10 09:44:07;;;;;;;25.35;2.42;;;;;;;;;;5011995;28;20732;-67
2022/06/10 09:46:43;;;;;;;11.02;1.70;;;;;;;;;;4998152;28;20240;-67
2022/06/10 09:49:17;;;;;;;260.90;18.15;;;;;;;;;;4991074;28;20236;-68
2022/06/10 09:51:43;;;;;;;13.15;2.28;;;;;;;;;;4992696;28;20212;-67
2022/06/10 09:54:09;;;;;;;8.27;1.60;;;;;;;;;;4991986;28;20735;-67
2022/06/10 09:56:40;;;;;;;10.27;1.92;;;;;;;;;;4991534;28;20255;-68
2022/06/10 09:59:13;;;;;;;14.80;1.88;;;;;;;;;;4991677;28;20253;-66
2022/06/10 10:01:40;;;;;;;8.60;1.98;;;;;;;;;;4991139;28;20213;-67
2022/06/10 10:04:24;;;;;;;8.68;1.90;;;;;;;;;;4990070;28;20209;-66
2022/06/10 10:06:54;;;;;;;6.53;1.38;;;;;;;;;;4991917;28;20221;-67
2022/06/10 10:09:24;;;;;;;9.32;1.52;;;;;;;;;;4989649;28;21009;-67
2022/06/10 10:12:13;;;;;;;7.45;1.40;;;;;;;;;;4992072;28;20217;-67
2022/06/10 10:14:39;;;;;;;18.85;1.88;;;;;;;;;;4988245;28;20217;-67
2022/06/10 10:17:05;;;;;;;12.98;1.65;;;;;;;;;;4990806;28;20216;-67
2022/06/10 10:19:36;;;;;;;11.30;1.75;;;;;;;;;;4991954;28;20209;-67
2022/06/10 10:22:11;;;;;;;8.05;1.70;;;;;;;;;;4991527;28;20722;-66
2022/06/10 10:24:38;;;;;;;9.95;2.17;;;;;;;;;;4990478;28;20216;-67
2022/06/10 10:27:07;;;;;;;23.42;2.28;;;;;;;;;;4990531;28;20236;-67
2022/06/10 10:29:33;;;;;;;17.15;2.22;;;;;;;;;;4992107;28;20217;-67
2022/06/10 10:32:02;;;;;;;10.57;1.67;;;;;;;;;;4997287;28;20604;-67
2022/06/10 10:34:31;;;;;;;9.18;1.48;;;;;;;;;;5010125;28;20236;-67
2022/06/10 10:36:57;;;;;;;11.02;1.77;;;;;;;;;;5011589;28;20235;-67
2022/06/10 10:39:26;;;;;;;8.18;1.63;;;;;;;;;;5009381;28;20243;-65
2022/06/10 10:41:51;;;;;;;8.60;1.80;;;;;;;;;;5011669;28;20227;-66
2022/06/10 10:44:22;;;;;;;12.07;2.10;;;;;;;;;;5000726;28;20213;-66
2022/06/10 10:47:07;;;;;;;28.08;2.88;;;;;;;;;;4989445;28;20221;-67
2022/06/10 10:49:33;;;;;;;20.58;3.00;;;;;;;;;;4998476;28;20228;-72
2022/06/10 10:51:58;;;;;;;36.47;2.60;;;;;;;;;;4990074;28;20216;-66
2022/06/10 10:54:30;;;;;;;13.82;2.03;;;;;;;;;;4990543;28;20205;-66
2022/06/10 10:56:56;;;;;;;7.40;1.70;;;;;;;;;;4990333;28;20213;-66
2022/06/10 10:59:21;;;;;;;22.27;2.58;;;;;;;;;;4994187;28;20644;-65
2022/06/10 11:01:47;;;;;;;9.70;2.08;;;;;;;;;;4996392;28;20244;-65
2022/06/10 11:04:17;;;;;;;39.40;3.63;;;;;;;;;;4991258;28;20220;-65
2022/06/10 11:06:42;;;;;;;11.30;1.92;;;;;;;;;;4990957;28;20245;-69
2022/06/10 11:09:16;;;;;;;8.50;2.05;;;;;;;;;;4991293;28;20229;-68
2022/06/10 11:11:41;;;;;;;10.65;2.20;;;;;;;;;;4991272;28;20217;-68
2022/06/10 11:14:25;;;;;;;9.02;1.90;;;;;;;;;;4988811;28;20711;-67
2022/06/10 11:17:01;;;;;;;8.32;1.58;;;;;;;;;;4991232;28;20209;-67
2022/06/10 11:19:40;;;;;;;10.23;1.98;;;;;;;;;;4998095;28;20217;-68
2022/06/10 11:22:09;;;;;;;13.68;2.50;;;;;;;;;;4990816;28;20220;-67
2022/06/10 11:24:37;;;;;;;9.77;2.20;;;;;;;;;;4991326;28;20304;-67
2022/06/10 11:27:15;;;;;;;10.70;2.53;;;;;;;;;;4992971;28;20224;-67
2022/06/10 11:29:41;;;;;;;9.02;2.38;;;;;;;;;;4993782;28;20307;-68
2022/06/10 11:32:06;;;;;;;10.38;2.55;;;;;;;;;;5001960;28;20304;-66
2022/06/10 11:34:38;;;;;;;10.27;2.10;;;;;;;;;;5013757;28;20217;-68
2022/06/10 11:37:18;;;;;;;12.77;2.20;;;;;;;;;;5014045;28;20219;-67
2022/06/10 11:39:48;;;;;;;10.93;2.50;;;;;;;;;;5014633;28;20243;-68
2022/06/10 11:42:17;;;;;;;14.07;2.55;;;;;;;;;;5013466;28;20300;-67
2022/06/10 11:44:48;;;;;;;16.17;2.65;;;;;;;;;;4999444;28;20248;-64
2022/06/10 11:47:23;;;;;;;19.38;3.33;;;;;;;;;;4993765;28;20223;-63
2022/06/10 11:49:50;;;;;;;15.82;2.83;;;;;;;;;;5005495;28;20235;-63
2022/06/10 11:52:29;;;;;;;21.88;3.10;;;;;;;;;;5010244;28;20287;-63
2022/06/10 11:54:59;;;;;;;22.75;3.58;;;;;;;;;;4988778;28;20225;-63
2022/06/10 12:00:14;;;;;;;11.93;2.33;;;;;;;;;;5012479;28;20298;-63
2022/06/10 12:02:47;;;;;;;16.98;3.28;;;;;;;;;;5012868;28;20220;-63
2022/06/10 12:05:20;;;;;;;14.75;2.67;;;;;;;;;;5014045;28;20231;-63
2022/06/10 12:07:48;;;;;;;36.05;3.67;;;;;;;;;;5012791;28;20266;-63
2022/06/10 12:10:15;;;;;;;17.67;2.72;;;;;;;;;;5011523;28;20251;-64
2022/06/10 12:12:41;;;;;;;20.15;2.90;;;;;;;;;;5012474;28;20275;-63
2022/06/10 12:15:15;;;;;;;42.13;4.28;;;;;;;;;;5011906;28;20216;-64
2022/06/10 12:17:41;;;;;;;26.35;3.78;;;;;;;;;;5010544;28;20647;-64
2022/06/10 12:20:16;;;;;;;12.18;2.70;;;;;;;;;;5012404;28;20244;-64
2022/06/10 12:22:41;;;;;;;20.45;3.28;;;;;;;;;;5012159;28;20273;-65
2022/06/10 12:25:15;;;;;;;17.33;3.78;;;;;;;;;;5011109;28;20288;-64
2022/06/10 12:27:42;;;;;;;13.27;2.72;;;;;;;;;;5013316;28;20220;-64
2022/06/10 12:30:18;;;;;;;12.10;2.72;;;;;;;;;;5011127;28;20240;-64
2022/06/10 12:32:56;;;;;;;16.83;2.60;;;;;;;;;;5013073;28;20544;-64
2022/06/10 12:35:23;;;;;;;16.58;3.28;;;;;;;;;;5011899;28;20242;-64
2022/06/10 12:37:51;;;;;;;11.55;2.90;;;;;;;;;;5011722;28;20208;-64
2022/06/10 12:40:19;;;;;;;13.63;2.67;;;;;;;;;;5011668;28;20652;-65
2022/06/10 12:42:46;;;;;;;11.13;2.58;;;;;;;;;;5012179;28;20211;-64
2022/06/10 12:45:14;;;;;;;51.35;5.53;;;;;;;;;;4992630;28;20217;-64
2022/06/10 12:47:40;;;;;;;21.25;3.42;;;;;;;;;;5008378;28;20205;-64
2022/06/10 12:50:16;;;;;;;16.60;2.88;;;;;;;;;;4993107;28;20237;-64
2022/06/10 12:52:46;;;;;;;11.50;2.40;;;;;;;;;;5007527;28;20815;-64
2022/06/10 12:55:17;;;;;;;20.63;3.13;;;;;;;;;;4993485;28;20232;-64
2022/06/10 12:57:43;;;;;;;21.30;2.92;;;;;;;;;;5008818;28;20217;-64
2022/06/10 13:00:18;;;;;;;17.58;2.90;;;;;;;;;;4993106;28;20585;-64
2022/06/10 13:02:49;;;;;;;28.45;3.38;;;;;;;;;;4998342;28;20212;-64
2022/06/10 13:05:17;;;;;;;25.13;3.50;;;;;;;;;;4992171;28;20680;-64
2022/06/10 13:07:43;;;;;;;20.38;3.65;;;;;;;;;;4992946;28;20553;-64
2022/06/10 13:10:27;;;;;;;19.10;3.20;;;;;;;;;;4993572;28;20359;-65
2022/06/10 13:12:53;;;;;;;25.15;3.38;;;;;;;;;;5006315;28;20296;-65
2022/06/10 13:15:23;;;;;;;15.02;2.97;;;;;;;;;;5008844;28;20307;-65
2022/06/10 13:17:57;;;;;;;39.10;5.40;;;;;;;;;;5000785;28;20263;-65
2022/06/10 13:20:22;;;;;;;13.73;3.30;;;;;;;;;;4991031;28;20220;-65
2022/06/10 13:23:09;;;;;;;41.92;4.43;;;;;;;;;;4991994;28;20212;-65
2022/06/10 13:25:34;;;;;;;13.13;3.00;;;;;;;;;;4999319;28;20299;-65
2022/06/10 13:27:59;;;;;;;32.90;3.53;;;;;;;;;;4991915;28;20304;-65
2022/06/10 13:30:26;;;;;;;13.40;3.30;;;;;;;;;;4991737;28;20229;-63
2022/06/10 13:32:53;;;;;;;19.30;4.38;;;;;;;;;;5007986;28;20677;-64
2022/06/10 13:35:20;;;;;;;20.60;3.25;;;;;;;;;;5011310;28;20213;-66
2022/06/10 13:37:46;;;;;;;10.52;2.75;;;;;;;;;;5012344;28;20218;-66
2022/06/10 13:40:13;;;;;;;9.52;2.70;;;;;;;;;;5011720;28;20212;-65
2022/06/10 13:42:39;;;;;;;8.40;2.80;;;;;;;;;;5010172;28;20354;-65
2022/06/10 13:45:21;;;;;;;7.05;2.55;;;;;;;;;;4993636;28;20292;-65
2022/06/10 13:47:55;;;;;;;10.25;2.60;;;;;;;;;;4990494;28;20572;-66
2022/06/10 13:50:33;;;;;;;8.55;2.60;;;;;;;;;;4991136;28;20243;-77
2022/06/10 13:53:01;;;;;;;10.15;3.13;;;;;;;;;;4989291;28;20736;-64
2022/06/10 13:55:26;;;;;;;10.32;3.45;;;;;;;;;;4998582;28;20212;-63
2022/06/10 13:57:53;;;;;;;10.25;3.38;;;;;;;;;;4992251;28;20734;-64
2022/06/10 14:00:20;;;;;;;11.30;3.30;;;;;;;;;;4991689;28;20587;-65
2022/06/10 14:02:45;;;;;;;8.80;3.15;;;;;;;;;;4996756;28;20232;-65
2022/06/10 14:05:15;;;;;;;9.75;3.10;;;;;;;;;;5011056;28;20216;-65
2022/06/10 14:07:41;;;;;;;9.32;3.20;;;;;;;;;;5008699;28;20209;-65
2022/06/10 14:10:09;;;;;;;15.85;3.20;;;;;;;;;;5022978;28;20216;-65
2022/06/10 14:12:34;;;;;;;19.92;3.75;;;;;;;;;;5011539;28;20224;-64
2022/06/10 14:15:13;;;;;;;28.80;4.28;;;;;;;;;;5011529;28;20213;-65
2022/06/10 14:17:39;;;;;;;14.75;3.58;;;;;;;;;;4996320;28;20208;-63
2022/06/10 14:20:04;;;;;;;19.08;3.60;;;;;;;;;;5010985;28;20220;-63
2022/06/10 14:22:30;;;;;;;10.32;3.00;;;;;;;;;;5009789;28;20255;-62
2022/06/10 14:25:12;;;;;;;9.95;3.20;;;;;;;;;;5010553;28;20267;-64
2022/06/10 14:27:38;;;;;;;10.90;3.40;;;;;;;;;;4997145;28;20222;-65
2022/06/10 14:30:20;;;;;;;10.77;3.00;;;;;;;;;;5008917;28;20580;-65
2022/06/10 14:32:51;;;;;;;22.60;4.28;;;;;;;;;;4996068;28;20291;-65
2022/06/10 14:35:27;;;;;;;10.52;2.95;;;;;;;;;;4991329;28;20213;-65
2022/06/10 14:37:59;;;;;;;11.90;3.17;;;;;;;;;;4990224;28;20637;-65
2022/06/10 14:40:25;;;;;;;18.73;3.28;;;;;;;;;;4990073;28;20213;-65
2022/06/10 14:43:00;;;;;;;12.73;3.13;;;;;;;;;;4991836;28;20221;-65
2022/06/10 14:45:28;;;;;;;15.25;3.22;;;;;;;;;;5010433;28;20227;-65
2022/06/10 14:48:05;;;;;;;12.25;3.20;;;;;;;;;;5011857;28;20731;-65
2022/06/10 14:50:31;;;;;;;14.57;3.92;;;;;;;;;;5011131;28;20319;-65
2022/06/10 14:52:56;;;;;;;28.08;4.03;;;;;;;;;;5009516;28;20288;-65
2022/06/10 14:55:29;;;;;;;12.68;3.33;;;;;;;;;;5009652;28;20735;-65